Adelandia, Brazil
Current Conditions -  °F | °C
As of 11:00 PM on Tuesday 27 Jan 2015 (Local Time) from SBGO Reporting Station
Thunderstorm Thunderstorm  
Wind Chill: 73°   Ceiling: 10000
Heat Index: 73°   Visibility: 6mi
Dew Point: 64°   Wind: 7mph
Humidity: 73%   Direction: 130°SE
Pressure: 30.06"   Gusts: NA
Location:  16.42°S, 50.17°W
Report Text: SBGO 280100Z 13006KT 9999 VCTS FEW045CB BKN100 23/18 Q1018
Loading
Personal Weather Stations






























Interactive Weather Map New forecast layout! Learn more

10-Day Weather Forecast

Advertisements
Track Severe Weather on mobile